Terminal Aerodrome Forecast
Issued by NWS Rapid City, SD

Home | Current Version | Previous Version | Text Only | Print | Product List | Glossary Off
Versions: 1 2 3 4 5 6 7 8 9 10 11 12 13 14 15 16 17 18 19 20 21

000
FTUS43 KUNR 250500
TAFRAP
TAF
KRAP 250520Z 2506/2606 32012KT P6SM OVC070
     FM251000 34015G25KT 5SM -SN OVC015
     FM251500 35025G35KT 1SM -SN BLSN OVC010
     FM260100 36020G30KT 5SM -SN OVC015=

USA.gov is the U.S. government's official web portal to all federal, state and local government web resources and services.